Time;durP1;ratioP1;P1;durP2;ratioP2;P2;SDS_P1;SDS_P2;PMS_P1;PMS_P2;Temp;Humidity;BMP_temperature;BMP_pressure;BME280_temperature;BME280_humidity;BME280_pressure;Samples;Min_cycle;Max_cycle;Signal;HPM_P1;HPM_P2
2022/09/03 00:00:57;;;;;;;;;;;;;;;19.30;100.00;98414.84;5057655;28;19976;-77
2022/09/03 00:03:28;;;;;;;;;;;;;;;19.21;100.00;98412.13;5075072;28;19925;-77
2022/09/03 00:05:54;;;;;;;;;;;;;;;19.40;100.00;98421.91;5057522;28;20017;-77
2022/09/03 00:08:36;;;;;;;;;;;;;;;19.29;100.00;98418.97;5057276;28;20015;-77
2022/09/03 00:11:17;;;;;;;;;;;;;;;19.29;100.00;98413.28;5074970;28;19970;-77
2022/09/03 00:13:50;;;;;;;;;;;;;;;19.34;100.00;98415.38;5074747;28;19928;-76
2022/09/03 00:16:20;;;;;;;;;;;;;;;19.25;100.00;98404.19;5075045;28;19924;-76
2022/09/03 00:18:51;;;;;;;;;;;;;;;19.21;100.00;98403.63;5074869;28;19946;-77
2022/09/03 00:21:39;;;;;;;;;;;;;;;19.20;100.00;98396.44;5057157;28;20031;-77
2022/09/03 00:24:07;;;;;;;;;;;;;;;19.13;100.00;98404.56;5056541;28;19928;-77
2022/09/03 00:26:36;;;;;;;;;;;;;;;18.86;100.00;98405.78;5073944;28;20029;-77
2022/09/03 00:29:21;;;;;;;;;;;;;;;18.86;100.00;98400.09;5056735;28;19924;-77
2022/09/03 00:32:02;;;;;;;;;;;;;;;18.82;100.00;98388.22;5074714;28;19925;-76
2022/09/03 00:34:40;;;;;;;;;;;;;;;18.85;100.00;98389.28;5074469;28;19932;-77
2022/09/03 00:37:09;;;;;;;;;;;;;;;18.79;100.00;98391.25;5056683;28;19931;-77
2022/09/03 00:39:36;;;;;;;;;;;;;;;18.67;100.00;98395.22;5056545;28;19928;-76
2022/09/03 00:42:20;;;;;;;;;;;;;;;18.68;100.00;98391.09;5074280;28;19978;-76
2022/09/03 00:45:01;;;;;;;;;;;;;;;18.59;100.00;98391.25;5056589;28;19964;-77
2022/09/03 00:47:41;;;;;;;;;;;;;;;18.51;100.00;98390.88;5074311;28;19924;-77
2022/09/03 00:50:13;;;;;;;;;;;;;;;18.69;100.00;98384.19;5074412;28;19924;-77
2022/09/03 00:52:44;;;;;;;;;;;;;;;18.63;100.00;98386.94;5074270;28;19924;-77
2022/09/03 00:55:26;;;;;;;;;;;;;;;18.78;100.00;98378.41;5073972;28;20327;-77
2022/09/03 00:58:03;;;;;;;;;;;;;;;18.95;100.00;98374.50;5039705;28;19924;-76
2022/09/03 01:00:30;;;;;;;;;;;;;;;19.00;100.00;98376.63;5074122;28;20043;-77
2022/09/03 01:03:06;;;;;;;;;;;;;;;19.09;100.00;98367.97;5074180;28;20387;-77
2022/09/03 01:05:36;;;;;;;;;;;;;;;18.93;100.00;98376.28;5073270;28;19924;-77
2022/09/03 01:08:19;;;;;;;;;;;;;;;18.87;100.00;98376.19;5074054;28;19978;-77
2022/09/03 01:11:17;;;;;;;;;;;;;;;19.05;100.00;98366.63;5056065;28;20334;-76
2022/09/03 01:13:50;;;;;;;;;;;;;;;19.04;100.00;98363.03;5011831;28;19929;-76
2022/09/03 01:16:18;;;;;;;;;;;;;;;19.17;100.00;98366.28;5012145;28;19952;-77
2022/09/03 01:18:47;;;;;;;;;;;;;;;18.92;100.00;98371.88;5011796;28;19955;-76
2022/09/03 01:21:33;;;;;;;;;;;;;;;18.77;100.00;98369.13;4979470;28;20022;-76
2022/09/03 01:24:16;;;;;;;;;;;;;;;18.47;100.00;98375.38;5011813;28;20080;-76
2022/09/03 01:26:52;;;;;;;;;;;;;;;18.22;100.00;98371.13;5011897;28;19964;-76
2022/09/03 01:29:19;;;;;;;;;;;;;;;18.23;100.00;98369.09;5011971;28;19972;-76
2022/09/03 01:31:49;;;;;;;;;;;;;;;18.06;100.00;98371.66;5011936;28;20011;-76
2022/09/03 01:34:30;;;;;;;;;;;;;;;18.07;100.00;98372.47;5011955;28;19926;-76
2022/09/03 01:37:33;;;;;;;;;;;;;;;17.89;100.00;98379.09;5011893;28;19932;-76
2022/09/03 01:40:06;;;;;;;;;;;;;;;18.09;100.00;98369.91;4953166;29;20362;-76
2022/09/03 01:42:36;;;;;;;;;;;;;;;18.23;100.00;98364.22;4953459;29;20045;-77
2022/09/03 01:45:07;;;;;;;;;;;;;;;18.20;100.00;98361.59;4921674;29;19951;-76
2022/09/03 01:47:53;;;;;;;;;;;;;;;18.27;100.00;98364.78;4953417;29;19926;-77
2022/09/03 01:50:38;;;;;;;;;;;;;;;18.50;100.00;98366.69;4975088;28;19939;-77
2022/09/03 01:53:08;;;;;;;;;;;;;;;18.38;100.00;98359.34;4976005;28;20005;-77
2022/09/03 01:56:05;;;;;;;;;;;;;;;18.43;100.00;98361.47;4991938;28;20452;-77
2022/09/03 01:58:55;;;;;;;;;;;;;;;18.38;100.00;98353.69;4991996;28;19960;-77
2022/09/03 02:01:34;;;;;;;;;;;;;;;18.43;100.00;98350.16;4992236;28;19961;-77
2022/09/03 02:04:01;;;;;;;;;;;;;;;18.32;100.00;98349.97;4992171;28;20269;-77
2022/09/03 02:06:30;;;;;;;;;;;;;;;18.34;100.00;98341.78;4991829;28;19957;-76
2022/09/03 02:08:57;;;;;;;;;;;;;;;18.26;100.00;98340.63;4991785;28;19948;-77
2022/09/03 02:11:25;;;;;;;;;;;;;;;18.40;100.00;98339.84;4991994;28;20386;-77
2022/09/03 02:13:54;;;;;;;;;;;;;;;18.48;100.00;98329.63;5026532;28;19932;-76
2022/09/03 02:16:24;;;;;;;;;;;;;;;18.71;100.00;98330.69;5057366;28;20027;-76
2022/09/03 02:19:00;;;;;;;;;;;;;;;18.66;100.00;98335.00;5075500;28;19933;-77
2022/09/03 02:21:32;;;;;;;;;;;;;;;18.82;100.00;98330.84;5075912;28;20390;-76
2022/09/03 02:24:00;;;;;;;;;;;;;;;18.77;100.00;98318.19;5075659;28;20311;-76
2022/09/03 02:26:27;;;;;;;;;;;;;;;18.69;100.00;98321.94;5058140;28;19925;-76
2022/09/03 02:28:54;;;;;;;;;;;;;;;18.00;100.00;98331.22;5075674;28;19978;-76
2022/09/03 02:31:21;;;;;;;;;;;;;;;17.92;100.00;98336.50;5075743;28;20360;-76
2022/09/03 02:33:49;;;;;;;;;;;;;;;17.75;100.00;98335.47;5076680;28;19925;-76
2022/09/03 02:36:18;;;;;;;;;;;;;;;18.12;100.00;98324.47;5077011;28;19924;-76
2022/09/03 02:38:46;;;;;;;;;;;;;;;18.38;100.00;98322.56;5076530;28;20368;-77
2022/09/03 02:41:14;;;;;;;;;;;;;;;18.39;100.00;98326.94;5076991;28;19975;-76
2022/09/03 02:43:46;;;;;;;;;;;;;;;18.49;100.00;98328.38;5059176;28;19924;-76
2022/09/03 02:46:21;;;;;;;;;;;;;;;18.65;100.00;98304.38;5059171;28;20159;-77
2022/09/03 02:48:48;;;;;;;;;;;;;;;18.70;100.00;98284.66;5076871;28;19924;-77
2022/09/03 02:51:15;;;;;;;;;;;;;;;18.49;100.00;98285.16;5076497;28;19924;-76
2022/09/03 02:53:42;;;;;;;;;;;;;;;18.23;100.00;98279.41;5076686;28;20296;-76
2022/09/03 02:56:10;;;;;;;;;;;;;;;18.43;100.00;98276.63;5076702;28;19951;-76
2022/09/03 02:58:37;;;;;;;;;;;;;;;18.15;100.00;98283.91;5076626;28;20364;-76
2022/09/03 03:01:04;;;;;;;;;;;;;;;18.23;100.00;98293.53;5076538;28;19931;-76
2022/09/03 03:03:31;;;;;;;;;;;;;;;18.20;100.00;98290.91;5076459;28;19928;-76
2022/09/03 03:06:01;;;;;;;;;;;;;;;18.46;100.00;98291.81;5076164;28;19971;-76
2022/09/03 03:08:29;;;;;;;;;;;;;;;18.42;100.00;98297.69;5076429;28;19928;-77
2022/09/03 03:10:58;;;;;;;;;;;;;;;18.59;100.00;98303.53;5058679;28;19928;-76
2022/09/03 03:13:25;;;;;;;;;;;;;;;18.57;100.00;98309.69;5058421;28;20270;-76
2022/09/03 03:15:59;;;;;;;;;;;;;;;18.62;100.00;98311.81;5076339;28;19925;-76
2022/09/03 03:18:27;;;;;;;;;;;;;;;18.50;100.00;98309.34;5076441;28;20370;-76
2022/09/03 03:20:54;;;;;;;;;;;;;;;18.69;100.00;98302.91;5075747;28;20007;-76
2022/09/03 03:23:21;;;;;;;;;;;;;;;18.65;100.00;98299.53;5076186;28;19956;-76
2022/09/03 03:25:48;;;;;;;;;;;;;;;18.67;100.00;98287.72;5058341;28;20368;-76
2022/09/03 03:28:15;;;;;;;;;;;;;;;18.54;100.00;98293.72;5075110;28;19925;-76
2022/09/03 03:30:46;;;;;;;;;;;;;;;18.72;100.00;98292.66;5076144;28;19939;-76
2022/09/03 03:33:13;;;;;;;;;;;;;;;18.71;100.00;98288.25;5076031;28;20446;-76
2022/09/03 03:35:41;;;;;;;;;;;;;;;18.64;100.00;98289.47;5075947;28;20363;-76
2022/09/03 03:38:08;;;;;;;;;;;;;;;18.62;100.00;98294.84;5075948;28;20494;-77
2022/09/03 03:40:36;;;;;;;;;;;;;;;18.58;100.00;98294.28;5058185;28;19924;-77
2022/09/03 03:43:03;;;;;;;;;;;;;;;18.17;100.00;98292.69;5058087;28;20458;-77
2022/09/03 03:45:30;;;;;;;;;;;;;;;18.28;100.00;98292.81;5058017;28;19982;-76
2022/09/03 03:47:59;;;;;;;;;;;;;;;18.43;100.00;98285.09;5058230;28;19970;-77
2022/09/03 03:50:26;;;;;;;;;;;;;;;18.50;100.00;98287.50;5075408;28;20019;-76
2022/09/03 03:52:53;;;;;;;;;;;;;;;18.45;100.00;98279.72;5075584;28;19931;-76
2022/09/03 03:55:21;;;;;;;;;;;;;;;18.37;100.00;98278.59;5057895;28;20012;-76
2022/09/03 03:57:48;;;;;;;;;;;;;;;18.09;100.00;98280.22;5075558;28;19995;-76
2022/09/03 04:00:15;;;;;;;;;;;;;;;18.06;100.00;98277.59;5075435;28;19925;-76
2022/09/03 04:02:42;;;;;;;;;;;;;;;18.25;100.00;98287.41;5075361;28;19947;-76
2022/09/03 04:05:09;;;;;;;;;;;;;;;18.31;100.00;98277.69;5074923;28;19924;-76
2022/09/03 04:07:36;;;;;;;;;;;;;;;18.32;100.00;98286.97;5075292;28;19932;-76
2022/09/03 04:10:03;;;;;;;;;;;;;;;18.20;100.00;98280.38;5075217;28;19924;-76
2022/09/03 04:12:31;;;;;;;;;;;;;;;18.20;100.00;98276.78;5075114;28;19960;-76
2022/09/03 04:14:58;;;;;;;;;;;;;;;18.25;100.00;98276.09;5075016;28;20019;-76
2022/09/03 04:17:26;;;;;;;;;;;;;;;18.32;100.00;98279.28;5057016;28;19931;-76
2022/09/03 04:19:53;;;;;;;;;;;;;;;18.17;100.00;98284.22;5074487;28;20007;-76
2022/09/03 04:22:20;;;;;;;;;;;;;;;17.30;100.00;98284.34;5074943;28;19929;-76
2022/09/03 04:24:47;;;;;;;;;;;;;;;17.35;100.00;98287.28;5074805;28;19931;-76
2022/09/03 04:27:14;;;;;;;;;;;;;;;17.60;100.00;98302.84;5074787;28;20014;-76
2022/09/03 04:29:41;;;;;;;;;;;;;;;17.95;100.00;98300.84;5075120;28;19951;-76
2022/09/03 04:34:54;;;;;;;;;;;;;;;18.07;100.00;98290.47;5074386;28;19925;-76
2022/09/03 04:37:21;;;;;;;;;;;;;;;18.09;100.00;98291.53;5074574;28;19935;-76
2022/09/03 04:39:48;;;;;;;;;;;;;;;18.09;100.00;98297.19;5056309;28;19924;-76
2022/09/03 04:42:14;;;;;;;;;;;;;;;18.14;100.00;98287.22;5039877;28;20384;-76
2022/09/03 04:44:41;;;;;;;;;;;;;;;18.13;100.00;98283.63;5056478;28;20315;-76
2022/09/03 04:47:08;;;;;;;;;;;;;;;18.18;100.00;98282.94;5074379;28;20010;-76
2022/09/03 04:49:35;;;;;;;;;;;;;;;18.34;100.00;98282.38;5074283;28;19951;-76
2022/09/03 04:52:02;;;;;;;;;;;;;;;18.35;100.00;98281.09;5056507;28;20393;-76
2022/09/03 04:54:29;;;;;;;;;;;;;;;18.31;100.00;98274.88;5074270;28;20350;-76
2022/09/03 04:56:56;;;;;;;;;;;;;;;18.34;100.00;98278.78;5074186;28;19931;-76
2022/09/03 04:59:23;;;;;;;;;;;;;;;18.45;100.00;98278.97;5074179;28;19931;-76
2022/09/03 05:01:55;;;;;;;;;;;;;;;18.55;100.00;98289.63;5073875;28;20540;-76
2022/09/03 05:04:22;;;;;;;;;;;;;;;18.50;100.00;98275.41;5074052;28;19924;-77
2022/09/03 05:06:49;;;;;;;;;;;;;;;18.46;100.00;98278.47;5074134;28;20252;-76
2022/09/03 05:09:16;;;;;;;;;;;;;;;18.35;100.00;98275.44;5072558;28;19925;-76
2022/09/03 05:11:45;;;;;;;;;;;;;;;18.33;100.00;98272.34;5074038;28;19925;-75
2022/09/03 05:14:13;;;;;;;;;;;;;;;18.20;100.00;98274.75;5073970;28;19971;-76
2022/09/03 05:16:40;;;;;;;;;;;;;;;18.07;100.00;98270.69;5039160;28;19924;-77
2022/09/03 05:19:07;;;;;;;;;;;;;;;18.12;100.00;98273.59;5073692;28;20015;-77
2022/09/03 05:21:37;;;;;;;;;;;;;;;18.21;100.00;98269.84;5056004;28;19925;-76
2022/09/03 05:24:04;;;;;;;;;;;;;;;18.21;100.00;98269.84;5056156;28;19924;-76
2022/09/03 05:26:33;;;;;;;;;;;;;;;18.27;100.00;98274.31;5056039;28;19928;-76
2022/09/03 05:29:01;;;;;;;;;;;;;;;18.08;100.00;98281.50;5073853;28;19924;-76
2022/09/03 05:31:30;;;;;;;;;;;;;;;17.69;100.00;98285.81;5073443;28;19928;-76
2022/09/03 05:33:59;;;;;;;;;;;;;;;17.77;100.00;98286.94;5073760;28;20010;-76
2022/09/03 05:36:27;;;;;;;;;;;;;;;18.04;100.00;98292.22;5073740;28;19931;-76
2022/09/03 05:38:55;;;;;;;;;;;;;;;18.20;100.00;98286.03;5055896;28;19925;-76
2022/09/03 05:41:22;;;;;;;;;;;;;;;18.29;100.00;98285.91;5073617;28;20356;-76
2022/09/03 05:43:54;;;;;;;;;;;;;;;18.12;100.00;98284.09;5055743;28;20085;-76
2022/09/03 05:46:26;;;;;;;;;;;;;;;17.95;100.00;98286.69;5073438;28;19928;-76
2022/09/03 05:48:53;;;;;;;;;;;;;;;17.94;100.00;98296.47;5055715;28;20339;-76
2022/09/03 05:51:20;;;;;;;;;;;;;;;18.12;100.00;98304.69;5075897;28;20019;-76
2022/09/03 05:53:48;;;;;;;;;;;;;;;18.17;100.00;98292.69;5077731;28;19924;-76
2022/09/03 05:56:19;;;;;;;;;;;;;;;18.12;100.00;98299.03;5077689;28;20419;-76
2022/09/03 05:58:51;;;;;;;;;;;;;;;18.03;100.00;98304.81;5077602;28;19990;-76
2022/09/03 06:01:18;;;;;;;;;;;;;;;18.15;100.00;98292.41;5077255;28;20352;-76
2022/09/03 06:03:46;;;;;;;;;;;;;;;18.33;100.00;98292.13;5077428;28;20022;-76
2022/09/03 06:06:14;;;;;;;;;;;;;;;18.36;100.00;98296.78;5077409;28;19924;-76
2022/09/03 06:08:43;;;;;;;;;;;;;;;18.26;100.00;98289.72;5059498;28;20300;-76
2022/09/03 06:11:10;;;;;;;;;;;;;;;18.26;100.00;98284.06;5077400;28;20439;-76
2022/09/03 06:13:38;;;;;;;;;;;;;;;18.40;100.00;98290.97;5077175;28;19930;-76
2022/09/03 06:16:06;;;;;;;;;;;;;;;18.48;100.00;98287.22;5076914;28;19971;-76
2022/09/03 06:18:33;;;;;;;;;;;;;;;18.45;100.00;98285.38;5077294;28;19925;-76
2022/09/03 06:21:01;;;;;;;;;;;;;;;18.59;100.00;98283.75;5076797;28;19925;-76
2022/09/03 06:23:29;;;;;;;;;;;;;;;18.61;100.00;98284.03;5082121;28;19924;-77
2022/09/03 06:26:03;;;;;;;;;;;;;;;18.77;100.00;98284.22;5085504;28;20333;-77
2022/09/03 06:28:35;;;;;;;;;;;;;;;18.83;100.00;98276.56;5086279;28;19994;-76
2022/09/03 06:31:02;;;;;;;;;;;;;;;18.73;100.00;98271.56;5075403;28;19928;-77
2022/09/03 06:33:30;;;;;;;;;;;;;;;18.87;100.00;98271.47;5066733;28;20011;-77
2022/09/03 06:35:58;;;;;;;;;;;;;;;18.85;100.00;98278.91;5082889;28;19952;-77
2022/09/03 06:38:26;;;;;;;;;;;;;;;18.47;100.00;98277.19;5088363;28;19978;-77
2022/09/03 06:40:54;;;;;;;;;;;;;;;18.49;100.00;98280.31;5085228;28;20452;-77
2022/09/03 06:43:22;;;;;;;;;;;;;;;18.69;100.00;98280.25;5069813;28;20268;-77
2022/09/03 06:45:56;;;;;;;;;;;;;;;18.66;100.00;98278.44;5085837;28;19924;-77
2022/09/03 06:48:23;;;;;;;;;;;;;;;18.66;100.00;98278.44;5086089;28;19932;-77
2022/09/03 06:50:55;;;;;;;;;;;;;;;18.89;100.00;98274.59;5082599;28;19978;-76
2022/09/03 06:53:23;;;;;;;;;;;;;;;19.03;100.00;98273.72;5076415;28;19929;-77
2022/09/03 06:55:54;;;;;;;;;;;;;;;18.83;100.00;98276.56;5058786;28;19951;-77
2022/09/03 06:58:22;;;;;;;;;;;;;;;18.77;100.00;98275.72;5076149;28;19928;-78
2022/09/03 07:00:53;;;;;;;;;;;;;;;18.81;100.00;98272.69;5076278;28;19956;-78
2022/09/03 07:03:21;;;;;;;;;;;;;;;18.87;100.00;98270.69;5058625;28;19928;-77
2022/09/03 07:05:47;;;;;;;;;;;;;;;18.69;100.00;98279.50;5076265;28;20460;-76
2022/09/03 07:08:14;;;;;;;;;;;;;;;18.80;100.00;98283.22;5058267;28;19924;-77
2022/09/03 07:10:45;;;;;;;;;;;;;;;19.03;100.00;98287.88;5076157;28;20406;-77
2022/09/03 07:13:13;;;;;;;;;;;;;;;19.09;100.00;98287.91;5058215;28;19935;-76
2022/09/03 07:15:40;;;;;;;;;;;;;;;19.16;100.00;98282.59;5076143;28;20338;-77
2022/09/03 07:18:07;;;;;;;;;;;;;;;19.30;100.00;98287.38;5076026;28;19967;-77
2022/09/03 07:20:35;;;;;;;;;;;;;;;19.62;100.00;98283.31;5075755;28;20066;-77
2022/09/03 07:23:02;;;;;;;;;;;;;;;19.70;100.00;98292.88;5058431;28;20321;-77
2022/09/03 07:25:30;;;;;;;;;;;;;;;19.99;100.00;98286.16;5075920;28;19925;-77
2022/09/03 07:27:57;;;;;;;;;;;;;;;19.91;100.00;98289.94;5075645;28;19924;-77
2022/09/03 07:30:25;;;;;;;;;;;;;;;19.89;100.00;98287.63;5041750;28;19925;-77
2022/09/03 07:32:53;;;;;;;;;;;;;;;19.60;100.00;98283.00;5075789;28;19935;-76
2022/09/03 07:35:24;;;;;;;;;;;;;;;19.47;100.00;98290.38;5075722;28;19925;-77
2022/09/03 07:37:51;;;;;;;;;;;;;;;19.63;100.00;98284.06;5057930;28;19978;-77
2022/09/03 07:40:18;;;;;;;;;;;;;;;19.73;100.00;98290.31;5075519;28;19959;-77
2022/09/03 07:42:47;;;;;;;;;;;;;;;19.16;100.00;98287.50;5075434;28;19924;-79
2022/09/03 07:45:15;;;;;;;;;;;;;;;19.32;100.00;98296.16;5075419;28;20451;-75
2022/09/03 07:47:48;;;;;;;;;;;;;;;19.90;100.00;98289.19;5057787;28;19971;-74
2022/09/03 07:50:15;;;;;;;;;;;;;;;20.16;100.00;98289.13;5057796;28;19928;-75
2022/09/03 07:52:42;;;;;;;;;;;;;;;20.03;100.00;98291.56;5024775;28;19935;-74
2022/09/03 07:55:09;;;;;;;;;;;;;;;20.25;100.00;98291.75;5041013;28;19925;-74
2022/09/03 07:57:36;;;;;;;;;;;;;;;20.23;100.00;98282.97;5057505;28;20490;-75
2022/09/03 08:00:05;;;;;;;;;;;;;;;20.44;100.00;98287.19;5057428;28;19978;-74
2022/09/03 08:02:37;;;;;;;;;;;;;;;20.63;100.00;98285.50;5040715;28;19983;-75
2022/09/03 08:05:06;;;;;;;;;;;;;;;20.81;100.00;98291.47;5024488;28;19932;-74
2022/09/03 08:07:32;;;;;;;;;;;;;;;19.91;100.00;98289.94;5075326;28;20002;-75
2022/09/03 08:10:00;;;;;;;;;;;;;;;20.60;100.00;98292.19;5036059;28;19951;-74
2022/09/03 08:12:27;;;;;;;;;;;;;;;20.49;100.00;98283.63;5075798;28;19924;-74
2022/09/03 08:14:56;;;;;;;;;;;;;;;20.71;100.00;98283.69;5054328;28;20407;-75
2022/09/03 08:17:23;;;;;;;;;;;;;;;20.81;100.00;98285.03;5091398;28;19981;-74
2022/09/03 08:19:50;;;;;;;;;;;;;;;21.03;100.00;98282.28;5079686;28;19927;-75
2022/09/03 08:22:17;;;;;;;;;;;;;;;20.96;100.00;98282.81;5068121;28;19967;-74
2022/09/03 08:24:44;;;;;;;;;;;;;;;21.24;100.00;98280.78;5087117;28;19969;-75
2022/09/03 08:27:11;;;;;;;;;;;;;;;21.34;100.00;98276.44;5055599;28;19924;-75
2022/09/03 08:29:38;;;;;;;;;;;;;;;21.09;100.00;98285.91;5077163;28;19924;-75
2022/09/03 08:32:05;;;;;;;;;;;;;;;21.28;100.00;98287.75;5076972;28;19966;-75
2022/09/03 08:34:32;;;;;;;;;;;;;;;21.07;100.00;98308.38;5077035;28;20015;-75
2022/09/03 08:37:00;;;;;;;;;;;;;;;21.35;100.00;98292.16;5043565;28;19924;-75
2022/09/03 08:39:37;;;;;;;;;;;;;;;21.58;100.00;98290.91;5061721;28;19932;-76
2022/09/03 08:42:07;;;;;;;;;;;;;;;21.79;100.00;98295.06;5084423;28;19930;-75
2022/09/03 08:44:49;;;;;;;;;;;;;;;21.61;100.00;98303.31;5072615;28;20306;-77
2022/09/03 08:47:27;;;;;;;;;;;;;;;21.42;100.00;98303.00;5091066;28;20023;-77
2022/09/03 08:50:13;;;;;;;;;;;;;;;21.67;100.00;98302.03;5091049;28;19931;-77
2022/09/03 08:52:49;;;;;;;;;;;;;;;21.72;100.00;98304.06;5071813;28;19982;-77
2022/09/03 08:55:16;;;;;;;;;;;;;;;21.87;100.00;98310.28;5059255;28;19928;-77
2022/09/03 08:57:46;;;;;;;;;;;;;;;21.48;100.00;98311.56;5053851;28;20057;-77
2022/09/03 09:00:17;;;;;;;;;;;;;;;21.64;100.00;98308.75;5072440;28;19974;-73
2022/09/03 09:03:06;;;;;;;;;;;;;;;21.80;100.00;98310.03;5054327;28;19948;-79
2022/09/03 09:05:50;;;;;;;;;;;;;;;21.36;100.00;98324.97;5074766;28;19936;-78
2022/09/03 09:08:17;;;;;;;;;;;;;;;21.59;100.00;98315.19;5086794;28;19924;-78
2022/09/03 09:10:44;;;;;;;;;;;;;;;21.94;100.00;98304.09;5071968;28;19924;-78
2022/09/03 09:13:15;;;;;;;;;;;;;;;21.63;100.00;98300.72;5090426;28;20329;-77
2022/09/03 09:15:44;;;;;;;;;;;;;;;21.64;100.00;98308.75;5088045;28;19931;-78
2022/09/03 09:18:17;;;;;;;;;;;;;;;21.92;100.00;98306.69;5072294;28;19935;-78
2022/09/03 09:20:59;;;;;;;;;;;;;;;21.94;100.00;98309.78;5089817;28;20368;-78
2022/09/03 09:23:29;;;;;;;;;;;;;;;21.63;100.00;98310.00;5090905;28;19938;-77
2022/09/03 09:25:58;;;;;;;;;;;;;;;21.98;100.00;98304.59;5089026;28;19928;-78
2022/09/03 09:28:32;;;;;;;;;;;;;;;22.19;100.00;98308.72;5072378;28;19959;-75
2022/09/03 09:31:00;;;;;;;;;;;;;;;22.37;100.00;98308.16;5056050;28;20371;-75
2022/09/03 09:33:29;;;;;;;;;;;;;;;22.43;100.00;98303.22;5055245;28;19928;-75
2022/09/03 09:35:58;;;;;;;;;;;;;;;21.61;100.00;98309.78;5038449;28;19924;-75
2022/09/03 09:38:30;;;;;;;;;;;;;;;21.58;100.00;98312.84;5057137;28;19930;-75
2022/09/03 09:41:07;;;;;;;;;;;;;;;21.59;100.00;98300.97;5074919;28;19928;-78
2022/09/03 09:43:35;;;;;;;;;;;;;;;21.92;100.00;98318.06;5042801;28;19924;-78
2022/09/03 09:46:12;;;;;;;;;;;;;;;22.26;100.00;98313.88;5075535;28;20014;-78
2022/09/03 09:48:53;;;;;;;;;;;;;;;22.43;100.00;98314.59;5094090;28;19924;-78
2022/09/03 09:51:25;;;;;;;;;;;;;;;21.75;100.00;98310.84;5093826;28;19924;-78
2022/09/03 09:54:10;;;;;;;;;;;;;;;22.05;100.00;98309.78;5093638;28;19924;-77
2022/09/03 09:56:37;;;;;;;;;;;;;;;22.24;100.00;98324.22;5093793;28;19931;-79
2022/09/03 09:59:05;;;;;;;;;;;;;;;21.69;100.00;98313.63;5093730;28;20336;-80
2022/09/03 10:01:33;;;;;;;;;;;;;;;21.63;100.00;98321.38;5075627;28;19924;-80
2022/09/03 10:04:07;;;;;;;;;;;;;;;21.96;100.00;98324.25;5093583;28;20397;-78
2022/09/03 10:06:52;;;;;;;;;;;;;;;21.74;100.00;98310.06;5093266;28;19924;-78
2022/09/03 10:09:24;;;;;;;;;;;;;;;22.00;100.00;98321.16;5087264;28;19932;-76
2022/09/03 10:12:04;;;;;;;;;;;;;;;21.32;100.00;98315.94;5038542;28;19928;-76
2022/09/03 10:14:35;;;;;;;;;;;;;;;21.79;100.00;98309.28;5072133;28;19925;-77
2022/09/03 10:17:09;;;;;;;;;;;;;;;22.36;100.00;98311.53;5089963;28;20575;-77
2022/09/03 10:20:25;;;;;;;;;;;;;;;22.42;100.00;98315.13;5071045;28;20323;-76
2022/09/03 10:22:33;;;;;;;;;;;;;;;22.67;100.00;98306.28;5089157;28;19928;-75
2022/09/03 10:25:02;;;;;;;;;;;;;;;22.56;100.00;98303.50;5089987;28;19928;-76
2022/09/03 10:27:29;;;;;;;;;;;;;;;22.64;100.00;98307.31;5058892;28;19939;-76
2022/09/03 10:29:59;;;;;;;;;;;;;;;22.47;100.00;98306.59;5085862;28;19924;-76
2022/09/03 10:32:38;;;;;;;;;;;;;;;22.50;100.00;98311.28;5089859;28;19955;-76
2022/09/03 10:35:11;;;;;;;;;;;;;;;22.06;100.00;98314.19;5063940;28;19928;-76
2022/09/03 10:37:57;;;;;;;;;;;;;;;22.23;100.00;98303.56;5054427;28;19925;-76
2022/09/03 10:40:30;;;;;;;;;;;;;;;22.35;100.00;98307.13;5038242;28;20032;-75
2022/09/03 10:43:03;;;;;;;;;;;;;;;22.42;100.00;98304.53;5073031;28;19931;-76
2022/09/03 10:45:38;;;;;;;;;;;;;;;22.81;100.00;98302.34;5073061;28;19925;-76
2022/09/03 10:48:08;;;;;;;;;;;;;;;22.58;100.00;98302.97;5038608;28;19924;-76
2022/09/03 10:50:53;;;;;;;;;;;;;;;22.83;100.00;98296.91;5072098;28;20391;-76
2022/09/03 10:53:33;;;;;;;;;;;;;;;23.06;100.00;98301.19;5022264;28;19928;-76
2022/09/03 10:56:04;;;;;;;;;;;;;;;23.23;100.00;98286.84;5072817;28;19924;-76
2022/09/03 10:58:37;;;;;;;;;;;;;;;23.53;100.00;98289.78;5054257;28;19924;-76
2022/09/03 11:01:12;;;;;;;;;;;;;;;22.57;100.00;98299.34;5054117;28;20268;-78
2022/09/03 11:04:18;;;;;;;;;;;;;;;22.86;100.00;98292.22;5072061;28;19930;-77
2022/09/03 11:06:50;;;;;;;;;;;;;;;23.33;100.00;98290.94;4990535;28;19950;-78
2022/09/03 11:09:17;;;;;;;;;;;;;;;22.69;100.00;98289.44;4975174;28;19949;-78
2022/09/03 11:11:50;;;;;;;;;;;;;;;23.49;100.00;98286.44;4990403;28;19936;-77
2022/09/03 11:14:27;;;;;;;;;;;;;;;23.01;100.00;98286.97;4988591;28;20349;-78
2022/09/03 11:16:58;;;;;;;;;;;;;;;22.98;100.00;98285.94;5009611;28;19951;-78
2022/09/03 11:19:32;;;;;;;;;;;;;;;22.85;100.00;98279.28;5009193;28;20032;-77
2022/09/03 11:22:00;;;;;;;;;;;;;;;23.44;100.00;98290.88;5009934;28;19965;-76
2022/09/03 11:24:31;;;;;;;;;;;;;;;23.66;100.00;98282.16;4993326;28;19925;-76
2022/09/03 11:27:15;;;;;;;;;;;;;;;23.43;100.00;98280.00;4992781;28;19957;-76
2022/09/03 11:29:52;;;;;;;;;;;;;;;23.57;100.00;98276.78;5010105;28;20600;-76
2022/09/03 11:32:28;;;;;;;;;;;;;;;22.81;100.00;98285.25;5026026;28;19925;-76
2022/09/03 11:34:55;;;;;;;;;;;;;;;22.58;100.00;98292.34;5009244;28;19926;-76
2022/09/03 11:37:22;;;;;;;;;;;;;;;22.99;100.00;98290.34;5035606;28;20296;-76
2022/09/03 11:39:54;;;;;;;;;;;;;;;22.90;100.00;98281.34;5074436;28;19956;-76
2022/09/03 11:42:29;;;;;;;;;;;;;;;23.07;100.00;98279.94;5072584;28;20550;-76
2022/09/03 11:45:11;;;;;;;;;;;;;;;23.00;100.00;98279.72;5071626;28;19924;-76
2022/09/03 11:47:42;;;;;;;;;;;;;;;23.17;100.00;98265.38;5053905;28;19935;-77
2022/09/03 11:50:35;;;;;;;;;;;;;;;23.61;100.00;98277.28;5070910;28;19925;-77
2022/09/03 11:53:23;;;;;;;;;;;;;;;23.49;100.00;98275.03;5037305;28;19929;-76
2022/09/03 11:55:56;;;;;;;;;;;;;;;23.13;100.00;98267.75;5071362;28;19966;-75
2022/09/03 11:58:23;;;;;;;;;;;;;;;23.19;100.00;98279.88;5071247;28;19928;-75
2022/09/03 12:00:52;;;;;;;;;;;;;;;23.13;100.00;98282.75;5037236;28;19935;-75
2022/09/03 12:03:38;;;;;;;;;;;;;;;23.17;100.00;98289.72;5069729;28;19970;-75
2022/09/03 12:06:19;;;;;;;;;;;;;;;23.13;100.00;98277.84;5037324;28;20073;-75
2022/09/03 12:08:56;;;;;;;;;;;;;;;23.17;100.00;98279.63;5053811;28;20544;-74
2022/09/03 12:11:42;;;;;;;;;;;;;;;23.62;100.00;98272.34;5087233;28;19932;-74
2022/09/03 12:14:19;;;;;;;;;;;;;;;24.09;100.00;98270.91;5094065;28;19976;-75
2022/09/03 12:16:55;;;;;;;;;;;;;;;24.11;100.00;98271.16;5076872;28;20018;-75
2022/09/03 12:19:28;;;;;;;;;;;;;;;24.05;100.00;98270.44;5076890;28;19928;-75
2022/09/03 12:21:55;;;;;;;;;;;;;;;23.82;100.00;98269.06;5060604;28;19935;-75
2022/09/03 12:24:26;;;;;;;;;;;;;;;24.17;100.00;98266.16;5060574;28;19924;-75
2022/09/03 12:26:56;;;;;;;;;;;;;;;23.85;100.00;98268.78;5077152;28;19954;-75
2022/09/03 12:29:25;;;;;;;;;;;;;;;23.12;100.00;98275.50;5077149;28;19924;-75
2022/09/03 12:31:53;;;;;;;;;;;;;;;23.37;100.00;98274.31;5060177;28;19924;-74
2022/09/03 12:34:20;;;;;;;;;;;;;;;24.08;100.00;98266.50;5043701;28;20321;-78
2022/09/03 12:36:50;;;;;;;;;;;;;;;24.42;100.00;98264.84;5077053;28;20008;-78
2022/09/03 12:39:24;;;;;;;;;;;;;;;24.02;100.00;98268.66;5076588;28;19973;-78
2022/09/03 12:42:15;;;;;;;;;;;;;;;23.98;100.00;98262.44;5094628;28;19970;-78
2022/09/03 12:44:42;;;;;;;;;;;;;;;23.99;100.00;98266.88;5094557;28;19969;-78
2022/09/03 12:47:13;;;;;;;;;;;;;;;23.28;100.00;98268.94;5094430;28;19946;-78
2022/09/03 12:50:05;;;;;;;;;;;;;;;24.46;100.00;98265.31;5076415;28;19924;-78
2022/09/03 12:52:43;;;;;;;;;;;;;;;24.37;100.00;98257.13;5076753;28;20264;-78
2022/09/03 12:55:29;;;;;;;;;;;;;;;24.76;100.00;98266.78;5094807;28;20395;-78
2022/09/03 12:58:09;;;;;;;;;;;;;;;23.74;100.00;98268.09;5094606;28;19924;-78
2022/09/03 13:00:44;;;;;;;;;;;;;;;23.51;100.00;98272.44;5076072;28;20329;-78